Meteo Giornale » Osservazioni meteo Gran Bretagna » Mildenhall Royal

ore: 13:56 - Osservazioni Meteo Mildenhall Royal
Lat. 52° 22' N Lon. 0° 29' E Alt. 10 metri s.l.m.

molto_nuvoloso Europe/London

18 °C

Molto Nuvoloso

Temp. 24 Ore

10 °C

18 °C

Sud

27.8 Km/h

Dew point 11 °C

Umidità 63 %

Visibilità  10 Km

Il sole sorge alle ore 06:52

Il sole tramonta alle ore 18:44

Data e Ora Cielo e Fenomeni T °C DP °C Um. % Pres. hPa Vis. km Vento km/h
Oggi h: 13:56 molto_nuvoloso Molto Nuvoloso 18 11 63 1014 10 S 27.8
Oggi h: 12:56 molto_nuvoloso Molto Nuvoloso 17 11 67 1015 10 S 25.9
Oggi h: 12:36 molto_nuvoloso Molto Nuvoloso 18 11 63 1015 10 S 33.3
Oggi h: 12:16 molto_nuvoloso Molto Nuvoloso 18 12 67 1015 10 S 31.5
Oggi h: 11:56 molto_nuvoloso Molto Nuvoloso 17 12 72 1016 10 S/SO 24
Oggi h: 10:56 molto_nuvoloso Molto Nuvoloso 16 12 77 1017 10 S 20.3
Oggi h: 09:56 molto_nuvoloso Molto Nuvoloso 14 12 87 1017 10 S 20.3
Oggi h: 08:56 molto_nuvoloso Molto Nuvoloso 12 12 100 1017 10 S 16.7
Oggi h: 07:56 molto_nuvoloso Molto Nuvoloso 11 11 100 1017 10 S 16.7
Oggi h: 06:56 molto_nuvoloso Molto Nuvoloso 11 11 100 1017 10 S 13
Oggi h: 05:56 poco_nuvoloso Poco Nuvoloso 10 10 100 1017 10 S 13
Oggi h: 04:56 poco_nuvoloso Poco Nuvoloso 10 10 100 1017 10 S 13
Oggi h: 03:56 nuvoloso Nuvoloso 10 10 100 1017 10 SO 13
Oggi h: 02:56 nuvoloso Nuvoloso 10 10 100 1017 10 S/SO 11.1
Oggi h: 01:56 poco_nuvoloso Poco Nuvoloso 11 10 93 1018 10 SO 13
Oggi h: 00:56 poco_nuvoloso Poco Nuvoloso 11 10 93 1017 10 S/SO 16.7
Ieri h: 23:56 poco_nuvoloso Poco Nuvoloso 11 9 87 1017 10 SO 20.3
Ieri h: 22:56 poco_nuvoloso Poco Nuvoloso 11 9 87 1017 10 SO 14.8
Ieri h: 21:56 poco_nuvoloso Poco Nuvoloso 12 8 76 1016 10 SO 14.8
Ieri h: 20:56 poco_nuvoloso Poco Nuvoloso 12 7 71 1015 10 SO 18.5
Ieri h: 19:56 poco_nuvoloso Poco Nuvoloso 14 6 58 1014 10 O/SO 20.3
Ieri h: 18:56 poco_nuvoloso Poco Nuvoloso 13 10 81 1013 10 O/SO 11.1
Ieri h: 17:56 nuvoloso Nuvoloso 16 9 63 1012 10 O 20.3
Ieri h: 17:16 molto_nuvoloso Rovescio nelle Vicinanze 16 8 58 1011 10 O/NO 22.2
Ieri h: 16:56 nuvoloso Nuvoloso 17 8 55 1011 10 O/SO 27.8
Ieri h: 15:56 poco_nuvoloso Poco Nuvoloso 18 7 48 1010 10 O 27.8
Ieri h: 14:56 nuvoloso Nuvoloso 17 7 51 1009 10 O 29.6